Time,TemperatureF,DewpointF,PressureIn,WindDirection,WindDirectionDegrees,WindSpeedMPH,WindSpeedGustMPH,Humidity,HourlyPrecipIn,Conditions,Clouds,dailyrainin,SoftwareType,DateUTC
2013-06-21 00:14:00,74.9,70.0,30.09,South,171,0.0,1.0,85,0.00,,,0.00,weatherlink.com 1.10,2013-06-21 05:14:00,
2013-06-21 00:29:00,74.1,70.0,30.09,South,171,0.0,0.0,86,0.00,,,0.00,weatherlink.com 1.10,2013-06-21 05:29:00,
2013-06-21 00:44:00,74.1,70.0,30.09,South,171,1.0,1.0,87,0.00,,,0.00,weatherlink.com 1.10,2013-06-21 05:44:00,
2013-06-21 00:59:00,74.4,70.0,30.08,South,171,0.0,1.0,87,0.00,,,0.00,weatherlink.com 1.10,2013-06-21 05:59:00,
2013-06-21 01:14:00,74.6,70.0,30.08,South,171,0.0,1.0,85,0.00,,,0.00,weatherlink.com 1.10,2013-06-21 06:14:00,
2013-06-21 01:29:00,74.0,70.0,30.08,South,171,0.0,0.0,86,0.00,,,0.00,weatherlink.com 1.10,2013-06-21 06:29:00,
2013-06-21 01:44:00,73.3,70.0,30.08,South,171,0.0,0.0,88,0.00,,,0.00,weatherlink.com 1.10,2013-06-21 06:44:00,
2013-06-21 01:59:00,72.8,69.0,30.08,South,171,0.0,0.0,88,0.00,,,0.00,weatherlink.com 1.10,2013-06-21 06:59:00,
2013-06-21 02:14:00,72.7,69.0,30.08,South,171,0.0,0.0,88,0.00,,,0.00,weatherlink.com 1.10,2013-06-21 07:14:00,
2013-06-21 02:29:00,72.5,69.0,30.08,South,171,0.0,0.0,88,0.00,,,0.00,weatherlink.com 1.10,2013-06-21 07:29:00,
2013-06-21 02:44:00,72.2,69.0,30.07,South,171,0.0,0.0,89,0.00,,,0.00,weatherlink.com 1.10,2013-06-21 07:44:00,
2013-06-21 02:59:00,71.8,69.0,30.07,South,171,0.0,0.0,90,0.00,,,0.00,weatherlink.com 1.10,2013-06-21 07:59:00,
2013-06-21 03:14:00,71.4,68.0,30.07,South,171,0.0,0.0,90,0.00,,,0.00,weatherlink.com 1.10,2013-06-21 08:14:00,
2013-06-21 03:29:00,71.3,68.0,30.08,South,171,0.0,0.0,90,0.00,,,0.00,weatherlink.com 1.10,2013-06-21 08:29:00,
2013-06-21 03:44:00,71.1,68.0,30.08,South,171,0.0,0.0,90,0.00,,,0.00,weatherlink.com 1.10,2013-06-21 08:44:00,
2013-06-21 03:59:00,70.8,68.0,30.08,South,171,0.0,0.0,90,0.00,,,0.00,weatherlink.com 1.10,2013-06-21 08:59:00,
2013-06-21 04:14:00,70.6,68.0,30.08,South,171,0.0,0.0,91,0.00,,,0.00,weatherlink.com 1.10,2013-06-21 09:14:00,
2013-06-21 04:29:00,70.4,68.0,30.08,South,171,0.0,0.0,91,0.00,,,0.00,weatherlink.com 1.10,2013-06-21 09:29:00,
2013-06-21 04:45:00,69.8,67.0,30.08,South,171,0.0,1.0,92,0.00,,,0.00,weatherlink.com 1.10,2013-06-21 09:45:00,
2013-06-21 05:00:00,69.9,68.0,30.08,South,171,0.0,1.0,92,0.00,,,0.00,weatherlink.com 1.10,2013-06-21 10:00:00,
2013-06-21 05:15:00,69.5,67.0,30.09,South,171,0.0,0.0,91,0.00,,,0.00,weatherlink.com 1.10,2013-06-21 10:15:00,
2013-06-21 05:30:00,69.2,67.0,30.09,South,171,1.0,1.0,92,0.00,,,0.00,weatherlink.com 1.10,2013-06-21 10:30:00,
2013-06-21 05:45:00,69.5,67.0,30.09,South,171,0.0,0.0,92,0.00,,,0.00,weatherlink.com 1.10,2013-06-21 10:45:00,
2013-06-21 06:00:00,69.7,67.0,30.08,South,171,0.0,0.0,92,0.00,,,0.00,weatherlink.com 1.10,2013-06-21 11:00:00,
2013-06-21 06:15:00,69.9,68.0,30.08,South,171,1.0,1.0,92,0.00,,,0.00,weatherlink.com 1.10,2013-06-21 11:15:00,
2013-06-21 06:30:00,70.2,68.0,30.09,South,171,0.0,1.0,92,0.00,,,0.00,weatherlink.com 1.10,2013-06-21 11:30:00,
2013-06-21 06:45:00,70.8,68.0,30.10,South,171,0.0,2.0,92,0.00,,,0.00,weatherlink.com 1.10,2013-06-21 11:45:00,
2013-06-21 07:00:00,71.6,69.0,30.10,South,171,1.0,2.0,91,0.00,,,0.00,weatherlink.com 1.10,2013-06-21 12:00:00,
2013-06-21 07:15:00,72.8,70.0,30.10,South,171,2.0,4.0,90,0.00,,,0.00,weatherlink.com 1.10,2013-06-21 12:15:00,
2013-06-21 07:30:00,73.9,70.0,30.11,South,171,2.0,4.0,88,0.00,,,0.00,weatherlink.com 1.10,2013-06-21 12:30:00,
2013-06-21 07:45:00,75.2,71.0,30.11,South,173,1.0,6.0,86,0.00,,,0.00,weatherlink.com 1.10,2013-06-21 12:45:00,
2013-06-21 08:00:00,76.5,72.0,30.12,South,173,3.0,4.0,85,0.00,,,0.00,weatherlink.com 1.10,2013-06-21 13:00:00,
2013-06-21 08:15:00,78.3,72.0,30.12,South,173,2.0,5.0,82,0.00,,,0.00,weatherlink.com 1.10,2013-06-21 13:15:00,
2013-06-21 08:30:00,79.7,73.0,30.12,SSW,211,5.0,6.0,79,0.00,,,0.00,weatherlink.com 1.10,2013-06-21 13:30:00,
2013-06-21 08:45:00,80.9,73.0,30.12,SSW,207,4.0,7.0,76,0.00,,,0.00,weatherlink.com 1.10,2013-06-21 13:45:00,
2013-06-21 09:00:00,81.7,73.0,30.12,SSE,167,3.0,7.0,74,0.00,,,0.00,weatherlink.com 1.10,2013-06-21 14:00:00,
2013-06-21 09:15:00,82.6,73.0,30.11,South,174,5.0,8.0,72,0.00,,,0.00,weatherlink.com 1.10,2013-06-21 14:15:00,
2013-06-21 09:30:00,83.6,74.0,30.11,SSE,168,5.0,6.0,72,0.00,,,0.00,weatherlink.com 1.10,2013-06-21 14:30:00,
2013-06-21 09:45:00,84.5,72.0,30.11,SSW,201,7.0,7.0,67,0.00,,,0.00,weatherlink.com 1.10,2013-06-21 14:45:00,
2013-06-21 10:00:00,85.5,72.0,30.10,South,169,3.0,9.0,64,0.00,,,0.00,weatherlink.com 1.10,2013-06-21 15:00:00,
2013-06-21 10:15:00,85.9,71.0,30.11,South,191,4.0,10.0,62,0.00,,,0.00,weatherlink.com 1.10,2013-06-21 15:15:00,
2013-06-21 10:30:00,86.2,72.0,30.10,WSW,255,1.0,9.0,62,0.00,,,0.00,weatherlink.com 1.10,2013-06-21 15:30:00,
2013-06-21 10:45:00,86.6,71.0,30.11,SSE,148,7.0,11.0,60,0.00,,,0.00,weatherlink.com 1.10,2013-06-21 15:45:00,
2013-06-21 11:00:00,86.9,71.0,30.11,SW,234,3.0,11.0,60,0.00,,,0.00,weatherlink.com 1.10,2013-06-21 16:00:00,
2013-06-21 11:15:00,87.3,72.0,30.11,SW,222,5.0,13.0,61,0.00,,,0.00,weatherlink.com 1.10,2013-06-21 16:15:00,
2013-06-21 11:30:00,87.3,71.0,30.11,South,171,9.0,10.0,59,0.00,,,0.00,weatherlink.com 1.10,2013-06-21 16:30:00,
2013-06-21 11:45:00,87.5,71.0,30.11,SSW,213,6.0,11.0,59,0.00,,,0.00,weatherlink.com 1.10,2013-06-21 16:45:00,
2013-06-21 12:00:00,88.0,70.0,30.11,West,261,3.0,12.0,56,0.00,,,0.00,weatherlink.com 1.10,2013-06-21 17:00:00,
2013-06-21 12:31:00,89.0,72.0,30.11,South,180,6.0,12.0,58,0.00,,,0.00,weatherlink.com 1.10,2013-06-21 17:31:00,
2013-06-21 12:46:00,88.7,73.0,30.10,South,179,4.0,11.0,60,0.00,,,0.00,weatherlink.com 1.10,2013-06-21 17:46:00,
2013-06-21 13:01:00,89.2,72.0,30.10,SW,216,6.0,11.0,58,0.00,,,0.00,weatherlink.com 1.10,2013-06-21 18:01:00,
2013-06-21 13:16:00,89.9,73.0,30.09,SSE,155,5.0,13.0,57,0.00,,,0.00,weatherlink.com 1.10,2013-06-21 18:16:00,
2013-06-21 13:31:00,90.2,72.0,30.09,South,181,10.0,11.0,55,0.00,,,0.00,weatherlink.com 1.10,2013-06-21 18:31:00,
2013-06-21 14:01:00,90.4,73.0,30.08,SE,145,10.0,15.0,56,0.00,,,0.00,weatherlink.com 1.10,2013-06-21 19:01:00,
2013-06-21 14:16:00,90.4,72.0,30.07,SSE,161,8.0,14.0,54,0.00,,,0.00,weatherlink.com 1.10,2013-06-21 19:16:00,
2013-06-21 14:31:00,90.2,72.0,30.07,SSW,202,10.0,16.0,55,0.00,,,0.00,weatherlink.com 1.10,2013-06-21 19:31:00,
2013-06-21 14:46:00,90.1,72.0,30.07,SSW,205,5.0,16.0,55,0.00,,,0.00,weatherlink.com 1.10,2013-06-21 19:46:00,
2013-06-21 15:01:00,90.6,73.0,30.06,SSE,168,10.0,15.0,56,0.00,,,0.00,weatherlink.com 1.10,2013-06-21 20:01:00,
2013-06-21 15:16:00,90.7,73.0,30.06,South,171,11.0,11.0,57,0.00,,,0.00,weatherlink.com 1.10,2013-06-21 20:16:00,
2013-06-21 15:31:00,90.2,73.0,30.05,South,175,8.0,15.0,57,0.00,,,0.00,weatherlink.com 1.10,2013-06-21 20:31:00,
2013-06-21 16:01:00,89.9,73.0,30.05,SSE,165,9.0,12.0,57,0.00,,,0.00,weatherlink.com 1.10,2013-06-21 21:01:00,
2013-06-21 16:16:00,90.4,74.0,30.04,South,177,6.0,16.0,58,0.00,,,0.00,weatherlink.com 1.10,2013-06-21 21:16:00,
2013-06-21 16:31:00,90.7,74.0,30.04,South,169,9.0,11.0,58,0.00,,,0.00,weatherlink.com 1.10,2013-06-21 21:31:00,
2013-06-21 16:46:00,90.6,73.0,30.04,South,183,5.0,13.0,57,0.00,,,0.00,weatherlink.com 1.10,2013-06-21 21:46:00,
2013-06-21 17:01:00,89.5,72.0,30.04,South,191,6.0,10.0,57,0.00,,,0.00,weatherlink.com 1.10,2013-06-21 22:01:00,
2013-06-21 17:31:00,89.5,72.0,30.05,SSE,167,3.0,9.0,57,0.00,,,0.00,weatherlink.com 1.10,2013-06-21 22:31:00,
2013-06-21 17:46:00,89.4,72.0,30.05,South,184,2.0,8.0,57,0.00,,,0.00,weatherlink.com 1.10,2013-06-21 22:46:00,
2013-06-21 18:01:00,88.5,74.0,30.05,SSW,195,2.0,6.0,62,0.00,,,0.00,weatherlink.com 1.10,2013-06-21 23:01:00,
2013-06-21 18:16:00,88.0,74.0,30.05,South,186,2.0,8.0,63,0.00,,,0.00,weatherlink.com 1.10,2013-06-21 23:16:00,
2013-06-21 18:31:00,88.4,73.0,30.05,South,181,2.0,5.0,60,0.00,,,0.00,weatherlink.com 1.10,2013-06-21 23:31:00,
2013-06-21 18:46:00,88.3,74.0,30.05,SSE,161,4.0,6.0,63,0.00,,,0.00,weatherlink.com 1.10,2013-06-21 23:46:00,
2013-06-21 19:01:00,87.5,74.0,30.04,South,173,4.0,7.0,64,0.00,,,0.00,weatherlink.com 1.10,2013-06-22 00:01:00,
2013-06-21 19:16:00,86.8,74.0,30.04,South,177,3.0,7.0,66,0.00,,,0.00,weatherlink.com 1.10,2013-06-22 00:16:00,
2013-06-21 19:31:00,85.7,74.0,30.03,SSE,157,4.0,7.0,69,0.00,,,0.00,weatherlink.com 1.10,2013-06-22 00:31:00,
2013-06-21 19:46:00,84.7,73.0,30.02,South,175,3.0,7.0,69,0.00,,,0.00,weatherlink.com 1.10,2013-06-22 00:46:00,
2013-06-21 20:01:00,84.0,73.0,30.02,SSE,161,5.0,7.0,69,0.00,,,0.00,weatherlink.com 1.10,2013-06-22 01:01:00,
2013-06-21 20:16:00,83.6,73.0,30.03,SSW,193,4.0,5.0,70,0.00,,,0.00,weatherlink.com 1.10,2013-06-22 01:16:00,
2013-06-21 20:31:00,83.1,72.0,30.04,SSE,160,3.0,3.0,70,0.00,,,0.00,weatherlink.com 1.10,2013-06-22 01:31:00,
2013-06-21 20:46:00,82.8,73.0,30.04,SSE,160,1.0,1.0,72,0.00,,,0.00,weatherlink.com 1.10,2013-06-22 01:46:00,
2013-06-21 21:01:00,80.9,73.0,30.05,SSE,160,0.0,2.0,76,0.00,,,0.00,weatherlink.com 1.10,2013-06-22 02:01:00,
2013-06-21 21:16:00,80.4,72.0,30.05,SSE,160,2.0,2.0,75,0.00,,,0.00,weatherlink.com 1.10,2013-06-22 02:16:00,
2013-06-21 21:31:00,80.7,72.0,30.05,SSE,160,1.0,3.0,75,0.00,,,0.00,weatherlink.com 1.10,2013-06-22 02:31:00,
2013-06-21 21:46:00,79.4,72.0,30.05,SSE,160,3.0,4.0,79,0.00,,,0.00,weatherlink.com 1.10,2013-06-22 02:46:00,
2013-06-21 22:01:00,80.0,73.0,30.05,SSE,160,3.0,6.0,78,0.00,,,0.00,weatherlink.com 1.10,2013-06-22 03:01:00,
2013-06-21 22:16:00,79.8,73.0,30.05,SSE,159,2.0,6.0,79,0.00,,,0.00,weatherlink.com 1.10,2013-06-22 03:16:00,
2013-06-21 22:31:00,78.8,73.0,30.04,South,169,5.0,7.0,81,0.00,,,0.00,weatherlink.com 1.10,2013-06-22 03:31:00,
2013-06-21 22:46:00,79.2,72.0,30.03,South,171,5.0,10.0,79,0.00,,,0.00,weatherlink.com 1.10,2013-06-22 03:46:00,
2013-06-21 23:01:00,79.1,72.0,30.04,SSE,162,2.0,8.0,79,0.00,,,0.00,weatherlink.com 1.10,2013-06-22 04:01:00,
2013-06-21 23:16:00,79.2,72.0,30.04,SE,143,4.0,5.0,78,0.00,,,0.00,weatherlink.com 1.10,2013-06-22 04:16:00,
2013-06-21 23:31:00,78.7,71.0,30.04,SSE,159,4.0,6.0,78,0.00,,,0.00,weatherlink.com 1.10,2013-06-22 04:31:00,
2013-06-21 23:46:00,78.4,71.0,30.05,SSE,159,3.0,6.0,78,0.00,,,0.00,weatherlink.com 1.10,2013-06-22 04:46:00,